sensor_id;sensor_type;location;lat;lon;timestamp;P1;durP1;ratioP1;P2;durP2;ratioP2
9836;SDS011;4957;51.412;6.724;2022-07-30T00:02:16;8.90;;;3.40;;
9836;SDS011;4957;51.412;6.724;2022-07-30T00:04:43;5.07;;;3.40;;
9836;SDS011;4957;51.412;6.724;2022-07-30T00:07:09;5.53;;;3.37;;
9836;SDS011;4957;51.412;6.724;2022-07-30T00:09:35;4.70;;;3.20;;
9836;SDS011;4957;51.412;6.724;2022-07-30T00:12:00;4.53;;;3.60;;
9836;SDS011;4957;51.412;6.724;2022-07-30T00:14:27;5.10;;;3.10;;
9836;SDS011;4957;51.412;6.724;2022-07-30T00:16:52;6.33;;;3.50;;
9836;SDS011;4957;51.412;6.724;2022-07-30T00:19:18;6.20;;;3.57;;
9836;SDS011;4957;51.412;6.724;2022-07-30T00:21:44;6.10;;;3.80;;
9836;SDS011;4957;51.412;6.724;2022-07-30T00:24:10;5.27;;;3.43;;
9836;SDS011;4957;51.412;6.724;2022-07-30T00:26:36;3.77;;;3.37;;
9836;SDS011;4957;51.412;6.724;2022-07-30T00:29:03;4.33;;;3.00;;
9836;SDS011;4957;51.412;6.724;2022-07-30T00:31:29;7.87;;;4.17;;
9836;SDS011;4957;51.412;6.724;2022-07-30T00:33:55;5.37;;;4.20;;
9836;SDS011;4957;51.412;6.724;2022-07-30T00:36:21;6.60;;;3.83;;
9836;SDS011;4957;51.412;6.724;2022-07-30T00:38:47;6.33;;;3.97;;
9836;SDS011;4957;51.412;6.724;2022-07-30T00:41:12;6.47;;;4.03;;
9836;SDS011;4957;51.412;6.724;2022-07-30T00:43:38;5.80;;;3.93;;
9836;SDS011;4957;51.412;6.724;2022-07-30T00:46:04;6.97;;;4.30;;
9836;SDS011;4957;51.412;6.724;2022-07-30T00:48:29;4.90;;;3.53;;
9836;SDS011;4957;51.412;6.724;2022-07-30T00:50:55;8.13;;;4.20;;
9836;SDS011;4957;51.412;6.724;2022-07-30T00:53:21;7.77;;;3.83;;
9836;SDS011;4957;51.412;6.724;2022-07-30T00:55:46;5.97;;;4.43;;
9836;SDS011;4957;51.412;6.724;2022-07-30T00:58:12;9.20;;;3.73;;
9836;SDS011;4957;51.412;6.724;2022-07-30T01:00:38;8.60;;;4.40;;
9836;SDS011;4957;51.412;6.724;2022-07-30T01:03:04;6.03;;;4.17;;
9836;SDS011;4957;51.412;6.724;2022-07-30T01:05:29;4.43;;;3.90;;
9836;SDS011;4957;51.412;6.724;2022-07-30T01:07:55;4.77;;;3.63;;
9836;SDS011;4957;51.412;6.724;2022-07-30T01:10:21;4.00;;;3.60;;
9836;SDS011;4957;51.412;6.724;2022-07-30T01:12:47;7.67;;;4.10;;
9836;SDS011;4957;51.412;6.724;2022-07-30T01:15:13;5.90;;;3.63;;
9836;SDS011;4957;51.412;6.724;2022-07-30T01:17:39;5.90;;;3.97;;
9836;SDS011;4957;51.412;6.724;2022-07-30T01:20:12;6.40;;;4.07;;
9836;SDS011;4957;51.412;6.724;2022-07-30T01:22:43;7.37;;;4.87;;
9836;SDS011;4957;51.412;6.724;2022-07-30T01:25:18;6.20;;;4.63;;
9836;SDS011;4957;51.412;6.724;2022-07-30T01:27:52;9.23;;;4.23;;
9836;SDS011;4957;51.412;6.724;2022-07-30T01:30:23;6.73;;;4.87;;
9836;SDS011;4957;51.412;6.724;2022-07-30T01:32:52;7.33;;;5.10;;
9836;SDS011;4957;51.412;6.724;2022-07-30T01:35:20;6.30;;;4.50;;
9836;SDS011;4957;51.412;6.724;2022-07-30T01:37:48;7.33;;;5.03;;
9836;SDS011;4957;51.412;6.724;2022-07-30T01:40:18;5.97;;;4.40;;
9836;SDS011;4957;51.412;6.724;2022-07-30T01:42:45;9.37;;;5.10;;
9836;SDS011;4957;51.412;6.724;2022-07-30T01:45:13;12.57;;;4.87;;
9836;SDS011;4957;51.412;6.724;2022-07-30T01:47:40;6.43;;;5.30;;
9836;SDS011;4957;51.412;6.724;2022-07-30T01:50:09;8.57;;;5.50;;
9836;SDS011;4957;51.412;6.724;2022-07-30T01:52:43;7.30;;;4.90;;
9836;SDS011;4957;51.412;6.724;2022-07-30T01:55:12;7.43;;;4.53;;
9836;SDS011;4957;51.412;6.724;2022-07-30T01:57:40;5.80;;;5.20;;
9836;SDS011;4957;51.412;6.724;2022-07-30T02:00:07;8.97;;;5.20;;
9836;SDS011;4957;51.412;6.724;2022-07-30T02:02:35;15.97;;;5.57;;
9836;SDS011;4957;51.412;6.724;2022-07-30T02:05:03;7.23;;;4.93;;
9836;SDS011;4957;51.412;6.724;2022-07-30T02:07:37;11.07;;;5.13;;
9836;SDS011;4957;51.412;6.724;2022-07-30T02:12:59;5.73;;;5.13;;
9836;SDS011;4957;51.412;6.724;2022-07-30T02:20:46;11.50;;;5.57;;
9836;SDS011;4957;51.412;6.724;2022-07-30T02:23:18;6.80;;;4.53;;
9836;SDS011;4957;51.412;6.724;2022-07-30T02:25:49;9.20;;;6.30;;
9836;SDS011;4957;51.412;6.724;2022-07-30T02:28:16;8.03;;;5.57;;
9836;SDS011;4957;51.412;6.724;2022-07-30T02:30:46;9.60;;;5.50;;
9836;SDS011;4957;51.412;6.724;2022-07-30T02:33:16;8.80;;;5.87;;
9836;SDS011;4957;51.412;6.724;2022-07-30T02:35:46;8.20;;;6.40;;
9836;SDS011;4957;51.412;6.724;2022-07-30T02:38:14;9.50;;;6.30;;
9836;SDS011;4957;51.412;6.724;2022-07-30T02:40:41;7.23;;;5.90;;
9836;SDS011;4957;51.412;6.724;2022-07-30T02:43:08;11.73;;;6.23;;
9836;SDS011;4957;51.412;6.724;2022-07-30T02:45:35;5.43;;;4.30;;
9836;SDS011;4957;51.412;6.724;2022-07-30T02:48:02;9.33;;;6.30;;
9836;SDS011;4957;51.412;6.724;2022-07-30T02:50:34;6.80;;;6.07;;
9836;SDS011;4957;51.412;6.724;2022-07-30T02:53:01;9.50;;;6.57;;
9836;SDS011;4957;51.412;6.724;2022-07-30T02:55:30;8.50;;;6.10;;
9836;SDS011;4957;51.412;6.724;2022-07-30T02:57:58;8.07;;;6.03;;
9836;SDS011;4957;51.412;6.724;2022-07-30T03:00:26;6.40;;;5.73;;
9836;SDS011;4957;51.412;6.724;2022-07-30T03:02:53;8.93;;;6.30;;
9836;SDS011;4957;51.412;6.724;2022-07-30T03:05:21;8.47;;;6.50;;
9836;SDS011;4957;51.412;6.724;2022-07-30T03:07:48;6.53;;;5.77;;
9836;SDS011;4957;51.412;6.724;2022-07-30T03:10:15;9.03;;;6.43;;
9836;SDS011;4957;51.412;6.724;2022-07-30T03:12:43;7.17;;;6.47;;
9836;SDS011;4957;51.412;6.724;2022-07-30T03:15:10;8.73;;;6.60;;
9836;SDS011;4957;51.412;6.724;2022-07-30T03:17:37;11.07;;;7.00;;
9836;SDS011;4957;51.412;6.724;2022-07-30T03:20:08;10.43;;;7.77;;
9836;SDS011;4957;51.412;6.724;2022-07-30T03:22:39;10.80;;;7.00;;
9836;SDS011;4957;51.412;6.724;2022-07-30T03:25:07;9.97;;;7.03;;
9836;SDS011;4957;51.412;6.724;2022-07-30T03:27:37;9.37;;;7.30;;
9836;SDS011;4957;51.412;6.724;2022-07-30T03:30:05;11.53;;;7.13;;
9836;SDS011;4957;51.412;6.724;2022-07-30T03:32:31;11.30;;;7.90;;
9836;SDS011;4957;51.412;6.724;2022-07-30T03:34:58;12.07;;;8.20;;
9836;SDS011;4957;51.412;6.724;2022-07-30T03:37:25;10.27;;;6.80;;
9836;SDS011;4957;51.412;6.724;2022-07-30T03:39:52;11.27;;;7.73;;
9836;SDS011;4957;51.412;6.724;2022-07-30T03:42:19;7.73;;;6.67;;
9836;SDS011;4957;51.412;6.724;2022-07-30T03:44:46;14.83;;;7.00;;
9836;SDS011;4957;51.412;6.724;2022-07-30T03:47:13;17.13;;;7.20;;
9836;SDS011;4957;51.412;6.724;2022-07-30T03:49:40;10.53;;;7.03;;
9836;SDS011;4957;51.412;6.724;2022-07-30T03:52:06;9.03;;;6.63;;
9836;SDS011;4957;51.412;6.724;2022-07-30T03:54:32;7.43;;;6.70;;
9836;SDS011;4957;51.412;6.724;2022-07-30T03:56:59;10.10;;;6.63;;
9836;SDS011;4957;51.412;6.724;2022-07-30T03:59:26;9.33;;;6.53;;
9836;SDS011;4957;51.412;6.724;2022-07-30T04:01:52;10.23;;;7.07;;
9836;SDS011;4957;51.412;6.724;2022-07-30T04:04:18;8.27;;;6.80;;
9836;SDS011;4957;51.412;6.724;2022-07-30T04:06:44;9.57;;;7.90;;
9836;SDS011;4957;51.412;6.724;2022-07-30T04:09:10;10.03;;;7.57;;
9836;SDS011;4957;51.412;6.724;2022-07-30T04:11:37;10.73;;;7.00;;
9836;SDS011;4957;51.412;6.724;2022-07-30T04:14:03;15.07;;;8.10;;
9836;SDS011;4957;51.412;6.724;2022-07-30T04:16:48;11.53;;;7.60;;
9836;SDS011;4957;51.412;6.724;2022-07-30T04:19:20;13.47;;;8.43;;
9836;SDS011;4957;51.412;6.724;2022-07-30T04:21:49;14.63;;;8.87;;
9836;SDS011;4957;51.412;6.724;2022-07-30T04:24:18;13.67;;;9.10;;
9836;SDS011;4957;51.412;6.724;2022-07-30T04:26:45;11.57;;;8.40;;
9836;SDS011;4957;51.412;6.724;2022-07-30T04:29:12;9.43;;;7.27;;
9836;SDS011;4957;51.412;6.724;2022-07-30T04:31:39;11.60;;;9.17;;
9836;SDS011;4957;51.412;6.724;2022-07-30T04:34:05;11.67;;;9.17;;
9836;SDS011;4957;51.412;6.724;2022-07-30T04:36:31;11.97;;;9.77;;
9836;SDS011;4957;51.412;6.724;2022-07-30T04:38:57;12.37;;;10.40;;
9836;SDS011;4957;51.412;6.724;2022-07-30T04:41:24;17.77;;;10.80;;
9836;SDS011;4957;51.412;6.724;2022-07-30T04:43:50;18.80;;;11.03;;
9836;SDS011;4957;51.412;6.724;2022-07-30T04:46:17;21.53;;;13.03;;
9836;SDS011;4957;51.412;6.724;2022-07-30T04:48:42;17.57;;;12.37;;
9836;SDS011;4957;51.412;6.724;2022-07-30T04:51:10;17.70;;;12.40;;
9836;SDS011;4957;51.412;6.724;2022-07-30T04:53:39;19.27;;;12.70;;
9836;SDS011;4957;51.412;6.724;2022-07-30T04:56:05;21.10;;;14.20;;
9836;SDS011;4957;51.412;6.724;2022-07-30T04:58:32;20.87;;;13.80;;
9836;SDS011;4957;51.412;6.724;2022-07-30T05:00:59;20.57;;;13.87;;
9836;SDS011;4957;51.412;6.724;2022-07-30T05:03:26;20.93;;;13.33;;
9836;SDS011;4957;51.412;6.724;2022-07-30T05:05:54;21.53;;;13.40;;
9836;SDS011;4957;51.412;6.724;2022-07-30T05:08:22;20.93;;;12.87;;
9836;SDS011;4957;51.412;6.724;2022-07-30T05:10:49;29.67;;;12.90;;
9836;SDS011;4957;51.412;6.724;2022-07-30T05:13:15;20.97;;;14.03;;
9836;SDS011;4957;51.412;6.724;2022-07-30T05:15:41;20.57;;;12.97;;
9836;SDS011;4957;51.412;6.724;2022-07-30T05:18:08;19.47;;;13.13;;
9836;SDS011;4957;51.412;6.724;2022-07-30T05:20:35;23.07;;;15.30;;
9836;SDS011;4957;51.412;6.724;2022-07-30T05:23:01;22.90;;;13.80;;
9836;SDS011;4957;51.412;6.724;2022-07-30T05:25:27;23.87;;;14.77;;
9836;SDS011;4957;51.412;6.724;2022-07-30T05:27:53;22.63;;;14.27;;
9836;SDS011;4957;51.412;6.724;2022-07-30T05:30:20;23.13;;;13.37;;
9836;SDS011;4957;51.412;6.724;2022-07-30T05:32:46;25.70;;;14.13;;
9836;SDS011;4957;51.412;6.724;2022-07-30T05:35:12;21.37;;;14.13;;
9836;SDS011;4957;51.412;6.724;2022-07-30T05:37:38;20.23;;;13.73;;
9836;SDS011;4957;51.412;6.724;2022-07-30T05:40:04;20.07;;;14.30;;
9836;SDS011;4957;51.412;6.724;2022-07-30T05:42:30;20.97;;;13.67;;
9836;SDS011;4957;51.412;6.724;2022-07-30T05:44:55;23.07;;;14.97;;
9836;SDS011;4957;51.412;6.724;2022-07-30T05:47:21;20.93;;;14.00;;
9836;SDS011;4957;51.412;6.724;2022-07-30T05:49:47;18.50;;;13.07;;
9836;SDS011;4957;51.412;6.724;2022-07-30T05:52:12;16.90;;;12.17;;
9836;SDS011;4957;51.412;6.724;2022-07-30T05:54:38;24.57;;;14.00;;
9836;SDS011;4957;51.412;6.724;2022-07-30T05:57:04;24.03;;;12.93;;
9836;SDS011;4957;51.412;6.724;2022-07-30T05:59:29;18.40;;;11.53;;
9836;SDS011;4957;51.412;6.724;2022-07-30T06:01:55;18.40;;;12.53;;
9836;SDS011;4957;51.412;6.724;2022-07-30T06:04:21;17.87;;;13.20;;
9836;SDS011;4957;51.412;6.724;2022-07-30T06:06:46;18.27;;;13.73;;
9836;SDS011;4957;51.412;6.724;2022-07-30T06:09:12;22.37;;;15.80;;
9836;SDS011;4957;51.412;6.724;2022-07-30T06:11:38;23.40;;;15.13;;
9836;SDS011;4957;51.412;6.724;2022-07-30T06:14:04;23.67;;;16.60;;
9836;SDS011;4957;51.412;6.724;2022-07-30T06:16:30;24.10;;;16.40;;
9836;SDS011;4957;51.412;6.724;2022-07-30T06:18:56;17.10;;;13.73;;
9836;SDS011;4957;51.412;6.724;2022-07-30T06:21:21;21.23;;;15.13;;
9836;SDS011;4957;51.412;6.724;2022-07-30T06:23:47;24.70;;;15.97;;
9836;SDS011;4957;51.412;6.724;2022-07-30T06:26:13;22.83;;;16.10;;
9836;SDS011;4957;51.412;6.724;2022-07-30T06:28:39;19.80;;;14.97;;
9836;SDS011;4957;51.412;6.724;2022-07-30T06:31:05;19.23;;;13.80;;
9836;SDS011;4957;51.412;6.724;2022-07-30T06:33:31;16.60;;;12.60;;
9836;SDS011;4957;51.412;6.724;2022-07-30T06:35:57;16.53;;;12.33;;
9836;SDS011;4957;51.412;6.724;2022-07-30T06:38:23;20.03;;;13.27;;
9836;SDS011;4957;51.412;6.724;2022-07-30T06:40:49;15.87;;;11.73;;
9836;SDS011;4957;51.412;6.724;2022-07-30T06:43:14;18.37;;;12.70;;
9836;SDS011;4957;51.412;6.724;2022-07-30T06:45:40;19.43;;;12.80;;
9836;SDS011;4957;51.412;6.724;2022-07-30T06:48:06;15.37;;;11.90;;
9836;SDS011;4957;51.412;6.724;2022-07-30T06:50:31;14.27;;;11.27;;
9836;SDS011;4957;51.412;6.724;2022-07-30T06:52:59;12.63;;;9.87;;
9836;SDS011;4957;51.412;6.724;2022-07-30T06:55:25;13.33;;;10.03;;
9836;SDS011;4957;51.412;6.724;2022-07-30T06:57:50;21.43;;;12.47;;
9836;SDS011;4957;51.412;6.724;2022-07-30T07:00:16;19.03;;;11.57;;
9836;SDS011;4957;51.412;6.724;2022-07-30T07:02:42;12.67;;;9.93;;
9836;SDS011;4957;51.412;6.724;2022-07-30T07:05:08;15.03;;;11.60;;
9836;SDS011;4957;51.412;6.724;2022-07-30T07:07:34;15.13;;;10.27;;
9836;SDS011;4957;51.412;6.724;2022-07-30T07:10:00;13.60;;;9.87;;
9836;SDS011;4957;51.412;6.724;2022-07-30T07:12:25;10.90;;;8.83;;
9836;SDS011;4957;51.412;6.724;2022-07-30T07:14:51;14.80;;;9.10;;
9836;SDS011;4957;51.412;6.724;2022-07-30T07:17:17;11.60;;;8.80;;
9836;SDS011;4957;51.412;6.724;2022-07-30T07:19:42;10.37;;;8.50;;
9836;SDS011;4957;51.412;6.724;2022-07-30T07:22:08;12.73;;;8.43;;
9836;SDS011;4957;51.412;6.724;2022-07-30T07:24:34;11.47;;;9.00;;
9836;SDS011;4957;51.412;6.724;2022-07-30T07:26:59;16.03;;;9.27;;
9836;SDS011;4957;51.412;6.724;2022-07-30T07:29:25;9.27;;;7.90;;
9836;SDS011;4957;51.412;6.724;2022-07-30T07:31:51;9.87;;;7.83;;
9836;SDS011;4957;51.412;6.724;2022-07-30T07:34:16;10.83;;;7.77;;
9836;SDS011;4957;51.412;6.724;2022-07-30T07:36:43;13.90;;;8.30;;
9836;SDS011;4957;51.412;6.724;2022-07-30T07:39:08;10.13;;;7.27;;
9836;SDS011;4957;51.412;6.724;2022-07-30T07:41:37;9.43;;;7.90;;
9836;SDS011;4957;51.412;6.724;2022-07-30T07:44:03;11.77;;;7.20;;
9836;SDS011;4957;51.412;6.724;2022-07-30T07:46:30;11.37;;;7.80;;
9836;SDS011;4957;51.412;6.724;2022-07-30T07:48:56;12.43;;;8.47;;
9836;SDS011;4957;51.412;6.724;2022-07-30T07:51:22;10.13;;;7.13;;
9836;SDS011;4957;51.412;6.724;2022-07-30T07:53:48;10.23;;;8.10;;
9836;SDS011;4957;51.412;6.724;2022-07-30T07:56:13;10.63;;;7.30;;
9836;SDS011;4957;51.412;6.724;2022-07-30T07:58:39;11.93;;;6.87;;
9836;SDS011;4957;51.412;6.724;2022-07-30T08:01:05;8.43;;;6.77;;
9836;SDS011;4957;51.412;6.724;2022-07-30T08:03:31;10.50;;;7.13;;
9836;SDS011;4957;51.412;6.724;2022-07-30T08:05:56;10.47;;;6.73;;
9836;SDS011;4957;51.412;6.724;2022-07-30T08:08:22;7.73;;;6.10;;
9836;SDS011;4957;51.412;6.724;2022-07-30T08:10:48;9.90;;;6.33;;
9836;SDS011;4957;51.412;6.724;2022-07-30T08:13:14;10.57;;;7.30;;
9836;SDS011;4957;51.412;6.724;2022-07-30T08:15:41;8.07;;;6.37;;
9836;SDS011;4957;51.412;6.724;2022-07-30T08:18:06;8.47;;;5.43;;
9836;SDS011;4957;51.412;6.724;2022-07-30T08:20:33;10.10;;;6.23;;
9836;SDS011;4957;51.412;6.724;2022-07-30T08:22:59;8.07;;;5.90;;
9836;SDS011;4957;51.412;6.724;2022-07-30T08:25:26;9.97;;;5.80;;
9836;SDS011;4957;51.412;6.724;2022-07-30T08:27:52;8.57;;;5.73;;
9836;SDS011;4957;51.412;6.724;2022-07-30T08:30:18;10.43;;;6.20;;
9836;SDS011;4957;51.412;6.724;2022-07-30T08:32:44;11.17;;;5.97;;
9836;SDS011;4957;51.412;6.724;2022-07-30T08:35:09;9.10;;;6.30;;
9836;SDS011;4957;51.412;6.724;2022-07-30T08:37:36;9.53;;;5.97;;
9836;SDS011;4957;51.412;6.724;2022-07-30T08:40:03;8.90;;;5.60;;
9836;SDS011;4957;51.412;6.724;2022-07-30T08:42:29;10.43;;;4.80;;
9836;SDS011;4957;51.412;6.724;2022-07-30T08:44:58;7.43;;;5.57;;
9836;SDS011;4957;51.412;6.724;2022-07-30T08:47:34;7.97;;;5.03;;
9836;SDS011;4957;51.412;6.724;2022-07-30T08:50:04;7.50;;;4.53;;
9836;SDS011;4957;51.412;6.724;2022-07-30T08:52:32;6.90;;;4.73;;
9836;SDS011;4957;51.412;6.724;2022-07-30T08:55:01;8.33;;;4.73;;
9836;SDS011;4957;51.412;6.724;2022-07-30T08:57:29;8.27;;;4.50;;
9836;SDS011;4957;51.412;6.724;2022-07-30T08:59:59;6.13;;;3.90;;
9836;SDS011;4957;51.412;6.724;2022-07-30T09:02:25;8.07;;;4.43;;
9836;SDS011;4957;51.412;6.724;2022-07-30T09:04:53;9.17;;;4.33;;
9836;SDS011;4957;51.412;6.724;2022-07-30T09:07:19;7.17;;;4.80;;
9836;SDS011;4957;51.412;6.724;2022-07-30T09:09:45;6.13;;;3.97;;
9836;SDS011;4957;51.412;6.724;2022-07-30T09:15:21;7.37;;;4.20;;
9836;SDS011;4957;51.412;6.724;2022-07-30T09:17:56;6.17;;;4.03;;
9836;SDS011;4957;51.412;6.724;2022-07-30T09:20:25;8.37;;;3.97;;
9836;SDS011;4957;51.412;6.724;2022-07-30T09:22:53;4.63;;;3.70;;
9836;SDS011;4957;51.412;6.724;2022-07-30T09:25:38;5.43;;;3.10;;
9836;SDS011;4957;51.412;6.724;2022-07-30T09:28:07;5.47;;;3.17;;
9836;SDS011;4957;51.412;6.724;2022-07-30T09:33:16;3.97;;;2.80;;
9836;SDS011;4957;51.412;6.724;2022-07-30T09:36:03;7.70;;;3.70;;
9836;SDS011;4957;51.412;6.724;2022-07-30T09:41:17;6.60;;;2.70;;
9836;SDS011;4957;51.412;6.724;2022-07-30T09:43:49;8.03;;;2.80;;
9836;SDS011;4957;51.412;6.724;2022-07-30T09:46:15;7.70;;;3.30;;
9836;SDS011;4957;51.412;6.724;2022-07-30T09:48:42;5.67;;;2.50;;
9836;SDS011;4957;51.412;6.724;2022-07-30T09:51:10;9.20;;;3.27;;
9836;SDS011;4957;51.412;6.724;2022-07-30T09:53:51;5.73;;;2.67;;
9836;SDS011;4957;51.412;6.724;2022-07-30T09:56:22;4.53;;;2.10;;
9836;SDS011;4957;51.412;6.724;2022-07-30T09:58:49;6.43;;;2.40;;
9836;SDS011;4957;51.412;6.724;2022-07-30T10:01:14;4.40;;;2.30;;
9836;SDS011;4957;51.412;6.724;2022-07-30T10:03:40;4.40;;;2.33;;
9836;SDS011;4957;51.412;6.724;2022-07-30T10:06:07;6.10;;;2.10;;
9836;SDS011;4957;51.412;6.724;2022-07-30T10:08:41;7.70;;;2.60;;
9836;SDS011;4957;51.412;6.724;2022-07-30T10:11:15;4.37;;;1.87;;
9836;SDS011;4957;51.412;6.724;2022-07-30T10:13:49;3.53;;;1.83;;
9836;SDS011;4957;51.412;6.724;2022-07-30T10:16:19;6.40;;;2.23;;
9836;SDS011;4957;51.412;6.724;2022-07-30T10:18:45;4.13;;;2.07;;
9836;SDS011;4957;51.412;6.724;2022-07-30T10:21:11;2.63;;;1.53;;
9836;SDS011;4957;51.412;6.724;2022-07-30T10:23:38;3.23;;;1.70;;
9836;SDS011;4957;51.412;6.724;2022-07-30T10:26:05;5.43;;;1.93;;
9836;SDS011;4957;51.412;6.724;2022-07-30T10:28:32;5.83;;;2.10;;
9836;SDS011;4957;51.412;6.724;2022-07-30T10:30:59;6.13;;;2.30;;
9836;SDS011;4957;51.412;6.724;2022-07-30T10:33:27;4.30;;;1.70;;
9836;SDS011;4957;51.412;6.724;2022-07-30T10:35:55;2.40;;;1.80;;
9836;SDS011;4957;51.412;6.724;2022-07-30T10:38:22;3.60;;;1.30;;
9836;SDS011;4957;51.412;6.724;2022-07-30T10:40:54;3.30;;;1.60;;
9836;SDS011;4957;51.412;6.724;2022-07-30T10:43:48;3.83;;;1.77;;
9836;SDS011;4957;51.412;6.724;2022-07-30T10:46:24;3.27;;;1.67;;
9836;SDS011;4957;51.412;6.724;2022-07-30T10:49:15;4.67;;;1.80;;
9836;SDS011;4957;51.412;6.724;2022-07-30T10:51:48;4.60;;;1.83;;
9836;SDS011;4957;51.412;6.724;2022-07-30T10:54:57;2.70;;;1.80;;
9836;SDS011;4957;51.412;6.724;2022-07-30T10:57:06;6.13;;;1.90;;
9836;SDS011;4957;51.412;6.724;2022-07-30T11:02:17;1.53;;;1.27;;
9836;SDS011;4957;51.412;6.724;2022-07-30T11:04:43;2.57;;;1.70;;
9836;SDS011;4957;51.412;6.724;2022-07-30T11:09:48;5.63;;;3.20;;
9836;SDS011;4957;51.412;6.724;2022-07-30T11:12:14;4.53;;;2.00;;
9836;SDS011;4957;51.412;6.724;2022-07-30T11:15:09;4.23;;;2.30;;
9836;SDS011;4957;51.412;6.724;2022-07-30T11:20:24;4.63;;;2.23;;
9836;SDS011;4957;51.412;6.724;2022-07-30T11:22:50;5.33;;;2.30;;
9836;SDS011;4957;51.412;6.724;2022-07-30T11:27:47;4.20;;;2.00;;
9836;SDS011;4957;51.412;6.724;2022-07-30T11:32:41;6.20;;;1.90;;
9836;SDS011;4957;51.412;6.724;2022-07-30T11:37:55;4.47;;;1.80;;
9836;SDS011;4957;51.412;6.724;2022-07-30T11:45:42;3.57;;;1.70;;
9836;SDS011;4957;51.412;6.724;2022-07-30T11:48:11;4.17;;;1.70;;
9836;SDS011;4957;51.412;6.724;2022-07-30T11:50:37;2.50;;;1.80;;
9836;SDS011;4957;51.412;6.724;2022-07-30T11:53:05;4.10;;;2.00;;
9836;SDS011;4957;51.412;6.724;2022-07-30T11:55:37;4.80;;;2.27;;
9836;SDS011;4957;51.412;6.724;2022-07-30T11:58:07;4.30;;;1.70;;
9836;SDS011;4957;51.412;6.724;2022-07-30T12:00:41;1.60;;;1.37;;
9836;SDS011;4957;51.412;6.724;2022-07-30T12:03:18;2.33;;;1.80;;
9836;SDS011;4957;51.412;6.724;2022-07-30T12:05:45;3.23;;;1.70;;
9836;SDS011;4957;51.412;6.724;2022-07-30T12:08:11;3.13;;;1.20;;
9836;SDS011;4957;51.412;6.724;2022-07-30T12:10:38;1.80;;;1.57;;
9836;SDS011;4957;51.412;6.724;2022-07-30T12:13:12;2.07;;;1.53;;
9836;SDS011;4957;51.412;6.724;2022-07-30T12:15:43;1.83;;;1.50;;
9836;SDS011;4957;51.412;6.724;2022-07-30T12:18:11;2.97;;;1.40;;
9836;SDS011;4957;51.412;6.724;2022-07-30T12:20:40;3.67;;;1.77;;
9836;SDS011;4957;51.412;6.724;2022-07-30T12:23:10;3.87;;;1.70;;
9836;SDS011;4957;51.412;6.724;2022-07-30T12:25:38;3.03;;;1.70;;
9836;SDS011;4957;51.412;6.724;2022-07-30T12:28:05;2.83;;;1.53;;
9836;SDS011;4957;51.412;6.724;2022-07-30T12:30:31;3.73;;;2.00;;
9836;SDS011;4957;51.412;6.724;2022-07-30T12:32:56;2.80;;;1.60;;
9836;SDS011;4957;51.412;6.724;2022-07-30T12:35:22;3.20;;;1.90;;
9836;SDS011;4957;51.412;6.724;2022-07-30T12:38:13;2.27;;;1.73;;
9836;SDS011;4957;51.412;6.724;2022-07-30T12:40:49;2.87;;;1.50;;
9836;SDS011;4957;51.412;6.724;2022-07-30T12:43:15;2.13;;;1.50;;
9836;SDS011;4957;51.412;6.724;2022-07-30T12:45:41;2.07;;;1.40;;
9836;SDS011;4957;51.412;6.724;2022-07-30T12:48:10;3.40;;;1.23;;
9836;SDS011;4957;51.412;6.724;2022-07-30T12:50:36;5.30;;;1.70;;
9836;SDS011;4957;51.412;6.724;2022-07-30T12:53:02;3.70;;;1.70;;
9836;SDS011;4957;51.412;6.724;2022-07-30T12:55:29;4.47;;;1.30;;
9836;SDS011;4957;51.412;6.724;2022-07-30T12:58:00;3.13;;;1.40;;
9836;SDS011;4957;51.412;6.724;2022-07-30T13:00:31;3.40;;;1.50;;
9836;SDS011;4957;51.412;6.724;2022-07-30T13:03:20;1.67;;;1.17;;
9836;SDS011;4957;51.412;6.724;2022-07-30T13:05:47;2.47;;;1.50;;
9836;SDS011;4957;51.412;6.724;2022-07-30T13:08:17;3.83;;;1.60;;
9836;SDS011;4957;51.412;6.724;2022-07-30T13:10:52;4.83;;;1.43;;
9836;SDS011;4957;51.412;6.724;2022-07-30T13:13:23;4.73;;;1.50;;
9836;SDS011;4957;51.412;6.724;2022-07-30T13:15:56;2.83;;;1.50;;
9836;SDS011;4957;51.412;6.724;2022-07-30T13:18:30;3.93;;;1.40;;
9836;SDS011;4957;51.412;6.724;2022-07-30T13:20:57;1.83;;;1.40;;
9836;SDS011;4957;51.412;6.724;2022-07-30T13:23:24;4.20;;;1.63;;
9836;SDS011;4957;51.412;6.724;2022-07-30T13:25:51;3.07;;;1.33;;
9836;SDS011;4957;51.412;6.724;2022-07-30T13:28:17;2.50;;;1.70;;
9836;SDS011;4957;51.412;6.724;2022-07-30T13:30:44;3.87;;;1.30;;
9836;SDS011;4957;51.412;6.724;2022-07-30T13:33:10;1.83;;;1.57;;
9836;SDS011;4957;51.412;6.724;2022-07-30T13:35:36;2.37;;;1.50;;
9836;SDS011;4957;51.412;6.724;2022-07-30T13:38:02;1.90;;;1.50;;
9836;SDS011;4957;51.412;6.724;2022-07-30T13:40:30;4.23;;;1.80;;
9836;SDS011;4957;51.412;6.724;2022-07-30T13:42:56;2.17;;;1.60;;
9836;SDS011;4957;51.412;6.724;2022-07-30T13:45:22;3.83;;;1.20;;
9836;SDS011;4957;51.412;6.724;2022-07-30T13:47:48;3.47;;;1.50;;
9836;SDS011;4957;51.412;6.724;2022-07-30T13:50:14;4.30;;;2.50;;
9836;SDS011;4957;51.412;6.724;2022-07-30T13:52:39;2.50;;;1.70;;
9836;SDS011;4957;51.412;6.724;2022-07-30T13:55:05;3.23;;;1.83;;
9836;SDS011;4957;51.412;6.724;2022-07-30T13:57:31;4.23;;;1.43;;
9836;SDS011;4957;51.412;6.724;2022-07-30T13:59:57;2.77;;;1.20;;
9836;SDS011;4957;51.412;6.724;2022-07-30T14:02:22;1.87;;;0.80;;
9836;SDS011;4957;51.412;6.724;2022-07-30T14:04:48;2.53;;;1.10;;
9836;SDS011;4957;51.412;6.724;2022-07-30T14:07:14;1.87;;;1.00;;
9836;SDS011;4957;51.412;6.724;2022-07-30T14:09:39;1.40;;;1.00;;
9836;SDS011;4957;51.412;6.724;2022-07-30T14:12:05;4.17;;;1.27;;
9836;SDS011;4957;51.412;6.724;2022-07-30T14:14:31;1.63;;;1.10;;
9836;SDS011;4957;51.412;6.724;2022-07-30T14:16:57;2.00;;;1.20;;
9836;SDS011;4957;51.412;6.724;2022-07-30T14:19:23;4.33;;;1.20;;
9836;SDS011;4957;51.412;6.724;2022-07-30T14:21:48;2.57;;;1.20;;
9836;SDS011;4957;51.412;6.724;2022-07-30T14:24:14;2.50;;;1.10;;
9836;SDS011;4957;51.412;6.724;2022-07-30T14:26:42;1.87;;;1.30;;
9836;SDS011;4957;51.412;6.724;2022-07-30T14:29:08;5.93;;;1.17;;
9836;SDS011;4957;51.412;6.724;2022-07-30T14:31:35;2.47;;;1.40;;
9836;SDS011;4957;51.412;6.724;2022-07-30T14:34:02;3.80;;;1.30;;
9836;SDS011;4957;51.412;6.724;2022-07-30T14:36:28;4.60;;;1.20;;
9836;SDS011;4957;51.412;6.724;2022-07-30T14:38:57;1.93;;;1.27;;
9836;SDS011;4957;51.412;6.724;2022-07-30T14:41:24;1.00;;;0.90;;
9836;SDS011;4957;51.412;6.724;2022-07-30T14:43:50;3.27;;;1.30;;
9836;SDS011;4957;51.412;6.724;2022-07-30T14:46:17;1.97;;;1.00;;
9836;SDS011;4957;51.412;6.724;2022-07-30T14:48:43;1.40;;;1.00;;
9836;SDS011;4957;51.412;6.724;2022-07-30T14:51:09;1.20;;;1.10;;
9836;SDS011;4957;51.412;6.724;2022-07-30T14:53:35;5.60;;;1.33;;
9836;SDS011;4957;51.412;6.724;2022-07-30T14:56:01;3.70;;;1.10;;
9836;SDS011;4957;51.412;6.724;2022-07-30T14:58:26;2.17;;;1.20;;
9836;SDS011;4957;51.412;6.724;2022-07-30T15:00:52;1.30;;;1.07;;
9836;SDS011;4957;51.412;6.724;2022-07-30T15:03:18;1.37;;;1.00;;
9836;SDS011;4957;51.412;6.724;2022-07-30T15:05:44;1.40;;;0.90;;
9836;SDS011;4957;51.412;6.724;2022-07-30T15:08:09;3.70;;;0.90;;
9836;SDS011;4957;51.412;6.724;2022-07-30T15:10:35;1.77;;;1.10;;
9836;SDS011;4957;51.412;6.724;2022-07-30T15:13:01;3.57;;;1.20;;
9836;SDS011;4957;51.412;6.724;2022-07-30T15:15:26;2.80;;;1.23;;
9836;SDS011;4957;51.412;6.724;2022-07-30T15:17:52;5.73;;;1.20;;
9836;SDS011;4957;51.412;6.724;2022-07-30T15:20:18;2.73;;;1.23;;
9836;SDS011;4957;51.412;6.724;2022-07-30T15:22:44;2.37;;;1.03;;
9836;SDS011;4957;51.412;6.724;2022-07-30T15:25:09;2.77;;;1.30;;
9836;SDS011;4957;51.412;6.724;2022-07-30T15:27:35;1.80;;;1.10;;
9836;SDS011;4957;51.412;6.724;2022-07-30T15:30:01;5.30;;;1.20;;
9836;SDS011;4957;51.412;6.724;2022-07-30T15:32:28;2.57;;;1.10;;
9836;SDS011;4957;51.412;6.724;2022-07-30T15:34:53;1.00;;;0.93;;
9836;SDS011;4957;51.412;6.724;2022-07-30T15:37:20;2.83;;;1.30;;
9836;SDS011;4957;51.412;6.724;2022-07-30T15:39:45;2.70;;;1.40;;
9836;SDS011;4957;51.412;6.724;2022-07-30T15:42:11;1.57;;;0.90;;
9836;SDS011;4957;51.412;6.724;2022-07-30T15:44:37;2.70;;;1.33;;
9836;SDS011;4957;51.412;6.724;2022-07-30T15:47:03;2.07;;;1.10;;
9836;SDS011;4957;51.412;6.724;2022-07-30T15:49:28;2.30;;;1.20;;